createdAt,value
2023-03-23T15:57:54.069Z,16.43
2023-03-23T16:00:24.021Z,16.38
2023-03-23T16:03:04.812Z,16.34
2023-03-23T16:05:33.956Z,16.28
2023-03-23T16:12:15.859Z,16.13
2023-03-23T16:14:48.804Z,16.07
2023-03-23T16:17:22.159Z,16.02
2023-03-23T16:20:20.611Z,15.97
2023-03-23T16:22:49.051Z,15.94
2023-03-23T16:25:32.422Z,15.89
2023-03-23T16:28:01.376Z,15.85
2023-03-23T16:30:33.911Z,15.82
2023-03-23T16:33:02.122Z,15.78
2023-03-23T16:35:32.784Z,15.74
2023-03-23T16:38:09.220Z,15.69
2023-03-23T16:40:37.969Z,15.64
2023-03-23T16:43:12.140Z,15.59
2023-03-23T16:45:45.872Z,15.54
2023-03-23T16:48:16.205Z,15.49
2023-03-23T16:50:47.127Z,15.45
2023-03-23T16:53:16.580Z,15.41
2023-03-23T16:55:47.965Z,15.37
2023-03-23T16:58:18.135Z,15.32
2023-03-23T17:00:51.638Z,15.29
2023-03-23T17:03:20.063Z,15.24
2023-03-23T17:05:50.111Z,15.20
2023-03-23T17:08:18.831Z,15.16
2023-03-23T17:10:50.103Z,15.12
2023-03-23T17:13:18.898Z,15.09
2023-03-23T17:15:47.513Z,15.06
2023-03-23T17:18:16.781Z,15.03
2023-03-23T17:20:45.868Z,14.99
2023-03-23T17:23:14.001Z,14.96
2023-03-23T17:25:46.270Z,14.92
2023-03-23T17:28:15.826Z,14.88
2023-03-23T17:30:46.891Z,14.84
2023-03-23T17:33:15.786Z,14.80
2023-03-23T17:35:46.256Z,14.77
2023-03-23T17:38:15.658Z,14.74
2023-03-23T17:40:44.514Z,14.70
2023-03-23T17:43:13.895Z,14.65
2023-03-23T17:45:44.346Z,14.61
2023-03-23T17:48:15.721Z,14.57
2023-03-23T17:50:48.785Z,14.52
2023-03-23T17:53:19.069Z,14.48
2023-03-23T17:55:47.661Z,14.44
2023-03-23T17:58:16.931Z,14.41
2023-03-23T18:00:45.183Z,14.37
2023-03-23T18:03:15.731Z,14.34
2023-03-23T18:05:44.229Z,14.30
2023-03-23T18:08:15.440Z,14.25
2023-03-23T18:10:49.733Z,14.22
2023-03-23T18:13:18.230Z,14.17
2023-03-23T18:15:47.075Z,14.13
2023-03-23T18:18:17.952Z,14.08
2023-03-23T18:20:46.524Z,14.03
2023-03-23T18:23:16.069Z,13.99
2023-03-23T18:25:44.683Z,13.93
2023-03-23T18:28:17.322Z,13.87
2023-03-23T18:30:50.543Z,13.81
2023-03-23T18:33:22.701Z,13.74
2023-03-23T18:35:57.491Z,13.67
2023-03-23T18:38:27.998Z,13.58
2023-03-23T18:40:56.762Z,13.50
2023-03-23T18:43:31.361Z,13.44
2023-03-23T18:46:01.021Z,13.38
2023-03-23T18:48:33.836Z,13.31
2023-03-23T18:51:04.914Z,13.24
2023-03-23T18:53:35.333Z,13.18
2023-03-23T18:56:07.460Z,13.14
2023-03-23T18:58:37.438Z,13.10
2023-03-23T19:01:07.578Z,13.05
2023-03-23T19:03:36.942Z,13.02
2023-03-23T19:06:08.595Z,13.00
2023-03-23T19:08:36.916Z,12.96
2023-03-23T19:11:08.441Z,12.92
2023-03-23T19:13:38.829Z,12.85
2023-03-23T19:16:12.532Z,12.78
2023-03-23T19:18:40.832Z,12.74
2023-03-23T19:21:13.450Z,12.68
2023-03-23T19:23:43.361Z,12.61
2023-03-23T19:26:20.076Z,12.55
2023-03-23T19:31:25.091Z,12.45
2023-03-23T19:33:53.627Z,12.41
2023-03-23T19:36:25.017Z,12.36
2023-03-23T19:38:58.037Z,12.29
2023-03-23T19:41:32.332Z,12.22
2023-03-23T19:44:18.004Z,12.17
2023-03-23T19:46:48.095Z,12.11
2023-03-23T19:49:17.037Z,12.06
2023-03-23T19:51:45.835Z,12.01
2023-03-23T19:54:14.333Z,11.95
2023-03-23T19:56:43.449Z,11.91
2023-03-23T19:59:15.028Z,11.87
2023-03-23T20:01:44.363Z,11.83
2023-03-23T20:04:14.406Z,11.81
2023-03-23T20:06:42.616Z,11.78
2023-03-23T20:09:11.739Z,11.76
2023-03-23T20:11:42.448Z,11.74
2023-03-23T20:14:11.137Z,11.73
2023-03-23T20:16:39.245Z,11.70
2023-03-23T20:19:08.895Z,11.66
2023-03-23T20:21:39.688Z,11.62
2023-03-23T20:24:13.541Z,11.59
2023-03-23T20:26:47.572Z,11.54
2023-03-23T20:29:16.539Z,11.50
2023-03-23T20:31:46.675Z,11.47
2023-03-23T20:34:28.691Z,11.45
2023-03-23T20:36:58.286Z,11.43
2023-03-23T20:39:32.148Z,11.40
2023-03-23T20:42:04.673Z,11.36
2023-03-23T20:44:35.158Z,11.32
2023-03-23T20:47:04.152Z,11.28
2023-03-23T20:49:37.344Z,11.27
2023-03-23T20:52:15.500Z,11.25
2023-03-23T20:54:45.726Z,11.21
2023-03-23T20:57:14.730Z,11.19
2023-03-23T20:59:43.150Z,11.17
2023-03-23T21:03:28.870Z,11.15
2023-03-23T21:09:10.255Z,11.11
2023-03-23T21:11:38.396Z,11.07
2023-03-23T21:14:07.008Z,11.06
2023-03-23T21:16:35.781Z,11.03
2023-03-23T21:19:15.969Z,11.01
2023-03-23T21:21:55.856Z,11.00
2023-03-23T21:24:29.616Z,11.00
2023-03-23T21:27:00.267Z,10.98
2023-03-23T21:29:31.907Z,10.97
2023-03-23T21:32:08.236Z,10.94
2023-03-23T21:34:43.779Z,10.90
2023-03-23T21:37:15.383Z,10.87
2023-03-23T21:39:43.686Z,10.83
2023-03-23T21:42:14.162Z,10.79
2023-03-23T21:44:43.036Z,10.76
2023-03-23T21:47:16.341Z,10.74
2023-03-23T21:49:46.744Z,10.74
2023-03-23T21:52:14.967Z,10.80
2023-03-23T21:54:49.902Z,10.92
2023-03-23T21:57:21.347Z,11.00
2023-03-23T21:59:52.177Z,11.05
2023-03-23T22:02:21.641Z,11.08
2023-03-23T22:04:50.139Z,11.09
2023-03-23T22:07:24.785Z,11.09
2023-03-23T22:09:56.818Z,11.08
2023-03-23T22:12:25.920Z,11.07
2023-03-23T22:14:55.089Z,11.04
2023-03-23T22:17:23.305Z,11.00
2023-03-23T22:19:51.991Z,10.96
2023-03-23T22:22:21.376Z,10.93
2023-03-23T22:24:53.113Z,10.89
2023-03-23T22:27:21.294Z,10.92
2023-03-23T22:29:54.427Z,11.01
2023-03-23T22:32:26.887Z,11.08
2023-03-23T22:35:00.258Z,11.12
2023-03-23T22:37:28.560Z,11.13
2023-03-23T22:39:59.442Z,11.13
2023-03-23T22:42:28.821Z,11.13
2023-03-23T22:44:57.464Z,11.11
2023-03-23T22:47:31.571Z,11.08
2023-03-23T22:50:02.276Z,11.01
2023-03-23T22:52:31.279Z,10.97
2023-03-23T22:55:05.927Z,10.95
2023-03-23T22:57:35.882Z,10.93
2023-03-23T23:00:09.272Z,10.98
2023-03-23T23:02:39.552Z,11.07
2023-03-23T23:05:10.474Z,11.11
2023-03-23T23:07:44.110Z,11.12
2023-03-23T23:10:17.083Z,11.12
2023-03-23T23:12:45.694Z,11.13
2023-03-23T23:15:22.305Z,11.11
2023-03-23T23:17:54.883Z,11.09
2023-03-23T23:20:26.604Z,11.08
2023-03-23T23:23:01.673Z,11.07
2023-03-23T23:25:30.718Z,11.04
2023-03-23T23:28:02.371Z,11.01
2023-03-23T23:30:36.115Z,10.97
2023-03-23T23:33:06.345Z,10.94
2023-03-23T23:35:37.156Z,10.90
2023-03-23T23:38:06.906Z,10.87
2023-03-23T23:40:36.544Z,10.89
2023-03-23T23:43:09.464Z,10.96
2023-03-23T23:45:38.577Z,11.02
2023-03-23T23:48:07.328Z,11.02
2023-03-23T23:50:37.146Z,11.00
2023-03-23T23:53:06.672Z,10.99
2023-03-23T23:55:39.571Z,10.98
2023-03-23T23:58:07.829Z,10.97
